Surface observations / Quebec / CYHU (71371)

Quebec | Canada | USA | France | UK | Europe | Elsewhere

Display: Info & Location for CYHU (71371) | Help decoding METAR

CYHU MONTREAL/ST HUBERT A QB CN
Raw surface observations for station CYHU
CYHU 302300Z AUTO 06007KT 9SM CLR 13/M08 A3020 RMK SLP230=
CYHU 302200Z AUTO 10005KT 9SM CLR 14/M08 A3020 RMK SLP229=
CYHU 302100Z AUTO 07005KT 360V100 9SM CLR 15/M09 A3021 RMK SLP232=
CYHU 302000Z AUTO 06003G16KT 340V080 9SM CLR 14/M09 A3021 RMK SLP232=
CYHU 301900Z AUTO 03009KT 340V100 9SM CLR 13/M08 A3022 RMK SLP235=
CYHU 011900Z AUTO 14008KT 9SM -RA SCT044 OVC060 10/04 A3014 RMK SLP210=
CYHU 011803Z AUTO 13009KT 9SM -RA OVC046 11/M02 A3016 RMK SLP216=
CYHU 011800Z AUTO 13008KT 9SM OVC048 11/M03 A3016 RMK SLP216=
CYHU 011742Z AUTO 13009KT 9SM OVC050 11/M02 A3016 RMK SLP217=
CYHU 011719Z AUTO 19006KT 120V210 9SM -RA OVC050 11/M03 A3017 RMK SLP220=
CYHU 011638Z AUTO 36005KT 320V050 9SM FEW047 OVC065 11/M01 A3018 RMK SLP222=
CYHU 011600Z AUTO 04005KT 340V060 9SM -RA OVC065 11/M03 A3019 RMK SLP225=
CYHU 011544Z AUTO 36005KT 340V080 9SM -RA OVC065 11/M03 A3018 RMK SLP223=
CYHU 011500Z AUTO 05004KT 340V080 9SM OVC065 10/M05 A3019 RMK SLP226=
CYHU 011400Z AUTO 02008KT 9SM CLR 09/M05 A3017 RMK SLP220=
CYHU 011300Z AUTO 02009KT 9SM FEW130 BKN190 08/M04 A3017 RMK SLP218=
CYHU 011200Z AUTO 03010G15KT 9SM FEW130 06/M03 A3018 RMK SLP221=
CYHU 011100Z AUTO 01008KT 9SM SCT130 SCT150 05/M03 A3018 RMK SLP223=
CYHU 011000Z AUTO 01005KT 9SM OVC160 04/M04 A3019 RMK SLP225=
CYHU 010900Z AUTO 01004KT 9SM BKN150 OVC190 03/M04 A3019 RMK SLP225=
CYHU 010800Z AUTO 01007KT 9SM BKN150 BKN190 BKN210 03/M06 A3019 RMK SLP226=
CYHU 010700Z AUTO 01006KT 9SM SCT210 03/M08 A3020 RMK SLP230=
CYHU 010600Z AUTO 02004KT 9SM BKN210 BKN230 05/M08 A3020 RMK SLP228=
CYHU 010500Z AUTO 05005KT 9SM BKN220 OVC240 07/M09 A3021 RMK SLP232=
CYHU 010400Z AUTO 03003KT 9SM FEW230 05/M07 A3021 RMK SLP232=
CYHU 010300Z AUTO 02005KT 9SM CLR 06/M08 A3020 RMK SLP231=
CYHU 010200Z AUTO 36003KT 9SM CLR 08/M07 A3022 RMK SLP237=
CYHU 010100Z AUTO 13003KT 9SM FEW250 09/M09 A3022 RMK SLP236=
CYHU 010000Z AUTO 08007KT 7SM CLR 10/M07 A3020 RMK SLP231=